sensor_id;sensor_type;location;lat;lon;timestamp;P1;durP1;ratioP1;P2;durP2;ratioP2
51724;SDS011;37801;53.224;6.552;2022-12-29T00:02:03;10.45;;;8.27;;
51724;SDS011;37801;53.224;6.552;2022-12-29T00:04:29;9.95;;;8.02;;
51724;SDS011;37801;53.224;6.552;2022-12-29T00:06:55;9.13;;;8.02;;
51724;SDS011;37801;53.224;6.552;2022-12-29T00:09:20;9.98;;;7.50;;
51724;SDS011;37801;53.224;6.552;2022-12-29T00:11:46;9.07;;;7.30;;
51724;SDS011;37801;53.224;6.552;2022-12-29T00:14:12;8.93;;;7.30;;
51724;SDS011;37801;53.224;6.552;2022-12-29T00:16:57;8.73;;;6.93;;
51724;SDS011;37801;53.224;6.552;2022-12-29T00:19:23;8.02;;;6.78;;
51724;SDS011;37801;53.224;6.552;2022-12-29T00:22:08;7.75;;;6.38;;
51724;SDS011;37801;53.224;6.552;2022-12-29T00:24:54;8.02;;;6.55;;
51724;SDS011;37801;53.224;6.552;2022-12-29T00:27:20;7.80;;;6.18;;
51724;SDS011;37801;53.224;6.552;2022-12-29T00:30:08;9.60;;;6.72;;
51724;SDS011;37801;53.224;6.552;2022-12-29T00:32:54;7.65;;;6.38;;
51724;SDS011;37801;53.224;6.552;2022-12-29T00:35:39;8.43;;;6.80;;
51724;SDS011;37801;53.224;6.552;2022-12-29T00:38:17;6.70;;;5.82;;
51724;SDS011;37801;53.224;6.552;2022-12-29T00:41:02;8.02;;;7.22;;
51724;SDS011;37801;53.224;6.552;2022-12-29T00:43:47;8.52;;;6.95;;
51724;SDS011;37801;53.224;6.552;2022-12-29T00:46:31;9.00;;;6.55;;
51724;SDS011;37801;53.224;6.552;2022-12-29T00:48:58;8.85;;;7.13;;
51724;SDS011;37801;53.224;6.552;2022-12-29T00:51:42;8.23;;;7.00;;
51724;SDS011;37801;53.224;6.552;2022-12-29T00:54:08;7.78;;;6.53;;
51724;SDS011;37801;53.224;6.552;2022-12-29T00:56:34;7.70;;;6.65;;
51724;SDS011;37801;53.224;6.552;2022-12-29T00:59:01;8.23;;;6.60;;
51724;SDS011;37801;53.224;6.552;2022-12-29T01:01:28;10.18;;;7.45;;
51724;SDS011;37801;53.224;6.552;2022-12-29T01:03:53;8.40;;;7.10;;
51724;SDS011;37801;53.224;6.552;2022-12-29T01:06:19;8.98;;;7.10;;
51724;SDS011;37801;53.224;6.552;2022-12-29T01:08:45;8.07;;;6.88;;
51724;SDS011;37801;53.224;6.552;2022-12-29T01:11:11;7.88;;;6.75;;
51724;SDS011;37801;53.224;6.552;2022-12-29T01:13:37;9.43;;;7.40;;
51724;SDS011;37801;53.224;6.552;2022-12-29T01:16:06;9.73;;;7.30;;
51724;SDS011;37801;53.224;6.552;2022-12-29T01:18:32;9.23;;;7.18;;
51724;SDS011;37801;53.224;6.552;2022-12-29T01:21:05;8.55;;;7.07;;
51724;SDS011;37801;53.224;6.552;2022-12-29T01:23:31;9.50;;;6.72;;
51724;SDS011;37801;53.224;6.552;2022-12-29T01:25:57;9.25;;;7.20;;
51724;SDS011;37801;53.224;6.552;2022-12-29T01:28:34;9.00;;;7.40;;
51724;SDS011;37801;53.224;6.552;2022-12-29T01:31:00;7.70;;;6.68;;
51724;SDS011;37801;53.224;6.552;2022-12-29T01:33:26;8.43;;;6.53;;
51724;SDS011;37801;53.224;6.552;2022-12-29T01:35:51;8.85;;;7.18;;
51724;SDS011;37801;53.224;6.552;2022-12-29T01:38:17;11.85;;;7.78;;
51724;SDS011;37801;53.224;6.552;2022-12-29T01:40:46;14.32;;;7.63;;
51724;SDS011;37801;53.224;6.552;2022-12-29T01:43:13;7.82;;;6.60;;
51724;SDS011;37801;53.224;6.552;2022-12-29T01:45:50;8.20;;;7.05;;
51724;SDS011;37801;53.224;6.552;2022-12-29T01:48:18;8.25;;;7.25;;
51724;SDS011;37801;53.224;6.552;2022-12-29T01:50:51;7.90;;;6.60;;
51724;SDS011;37801;53.224;6.552;2022-12-29T01:53:19;9.95;;;7.60;;
51724;SDS011;37801;53.224;6.552;2022-12-29T01:55:51;8.57;;;7.05;;
51724;SDS011;37801;53.224;6.552;2022-12-29T01:58:30;8.30;;;6.45;;
51724;SDS011;37801;53.224;6.552;2022-12-29T02:01:02;7.95;;;7.15;;
51724;SDS011;37801;53.224;6.552;2022-12-29T02:03:28;8.98;;;7.25;;
51724;SDS011;37801;53.224;6.552;2022-12-29T02:08:47;9.05;;;7.57;;
51724;SDS011;37801;53.224;6.552;2022-12-29T02:11:15;10.75;;;6.82;;
51724;SDS011;37801;53.224;6.552;2022-12-29T02:13:42;8.63;;;6.90;;
51724;SDS011;37801;53.224;6.552;2022-12-29T02:24:50;6.50;;;5.40;;
51724;SDS011;37801;53.224;6.552;2022-12-29T02:27:43;8.27;;;5.70;;
51724;SDS011;37801;53.224;6.552;2022-12-29T02:33:07;7.95;;;4.97;;
51724;SDS011;37801;53.224;6.552;2022-12-29T02:44:24;8.10;;;4.70;;
51724;SDS011;37801;53.224;6.552;2022-12-29T02:49:31;7.30;;;4.22;;
51724;SDS011;37801;53.224;6.552;2022-12-29T02:52:18;7.72;;;3.95;;
51724;SDS011;37801;53.224;6.552;2022-12-29T02:54:48;5.80;;;4.05;;
51724;SDS011;37801;53.224;6.552;2022-12-29T02:59:47;6.25;;;4.15;;
51724;SDS011;37801;53.224;6.552;2022-12-29T03:13:35;6.30;;;3.25;;
51724;SDS011;37801;53.224;6.552;2022-12-29T03:16:29;5.18;;;3.00;;
51724;SDS011;37801;53.224;6.552;2022-12-29T03:22:13;3.78;;;3.00;;
51724;SDS011;37801;53.224;6.552;2022-12-29T03:24:53;3.90;;;3.05;;
51724;SDS011;37801;53.224;6.552;2022-12-29T03:27:25;4.05;;;3.20;;
51724;SDS011;37801;53.224;6.552;2022-12-29T03:29:59;4.95;;;3.17;;
51724;SDS011;37801;53.224;6.552;2022-12-29T03:32:31;4.55;;;3.00;;
51724;SDS011;37801;53.224;6.552;2022-12-29T03:35:07;6.55;;;3.03;;
51724;SDS011;37801;53.224;6.552;2022-12-29T03:37:41;3.63;;;2.28;;
51724;SDS011;37801;53.224;6.552;2022-12-29T03:40:38;4.68;;;2.20;;
51724;SDS011;37801;53.224;6.552;2022-12-29T03:43:07;4.55;;;2.20;;
51724;SDS011;37801;53.224;6.552;2022-12-29T03:45:34;4.50;;;2.00;;
51724;SDS011;37801;53.224;6.552;2022-12-29T03:47:59;4.18;;;2.03;;
51724;SDS011;37801;53.224;6.552;2022-12-29T03:50:25;5.25;;;2.00;;
51724;SDS011;37801;53.224;6.552;2022-12-29T03:52:51;4.28;;;1.90;;
51724;SDS011;37801;53.224;6.552;2022-12-29T03:55:16;6.68;;;2.38;;
51724;SDS011;37801;53.224;6.552;2022-12-29T03:57:42;4.03;;;2.22;;
51724;SDS011;37801;53.224;6.552;2022-12-29T04:00:08;6.32;;;2.30;;
51724;SDS011;37801;53.224;6.552;2022-12-29T04:02:34;5.70;;;2.30;;
51724;SDS011;37801;53.224;6.552;2022-12-29T04:05:00;4.03;;;2.38;;
51724;SDS011;37801;53.224;6.552;2022-12-29T04:07:26;4.72;;;2.63;;
51724;SDS011;37801;53.224;6.552;2022-12-29T04:09:51;5.57;;;3.00;;
51724;SDS011;37801;53.224;6.552;2022-12-29T04:12:17;5.22;;;2.85;;
51724;SDS011;37801;53.224;6.552;2022-12-29T04:14:43;4.72;;;2.70;;
51724;SDS011;37801;53.224;6.552;2022-12-29T04:17:08;7.03;;;2.70;;
51724;SDS011;37801;53.224;6.552;2022-12-29T04:19:34;7.05;;;2.78;;
51724;SDS011;37801;53.224;6.552;2022-12-29T04:22:00;7.60;;;3.03;;
51724;SDS011;37801;53.224;6.552;2022-12-29T04:24:25;6.60;;;2.40;;
51724;SDS011;37801;53.224;6.552;2022-12-29T04:26:51;7.28;;;2.72;;
51724;SDS011;37801;53.224;6.552;2022-12-29T04:29:17;5.38;;;2.30;;
51724;SDS011;37801;53.224;6.552;2022-12-29T04:31:43;5.15;;;1.85;;
51724;SDS011;37801;53.224;6.552;2022-12-29T04:34:08;7.63;;;2.28;;
51724;SDS011;37801;53.224;6.552;2022-12-29T04:36:34;4.00;;;1.80;;
51724;SDS011;37801;53.224;6.552;2022-12-29T04:39:00;6.57;;;1.90;;
51724;SDS011;37801;53.224;6.552;2022-12-29T04:41:26;9.48;;;2.00;;
51724;SDS011;37801;53.224;6.552;2022-12-29T04:43:51;11.10;;;2.22;;
51724;SDS011;37801;53.224;6.552;2022-12-29T04:46:17;7.20;;;1.55;;
51724;SDS011;37801;53.224;6.552;2022-12-29T04:48:43;9.05;;;2.13;;
51724;SDS011;37801;53.224;6.552;2022-12-29T04:51:09;8.48;;;1.58;;
51724;SDS011;37801;53.224;6.552;2022-12-29T04:53:34;7.97;;;1.42;;
51724;SDS011;37801;53.224;6.552;2022-12-29T04:56:00;5.55;;;1.35;;
51724;SDS011;37801;53.224;6.552;2022-12-29T04:58:26;6.18;;;1.45;;
51724;SDS011;37801;53.224;6.552;2022-12-29T05:00:52;8.10;;;1.30;;
51724;SDS011;37801;53.224;6.552;2022-12-29T05:03:18;6.28;;;1.30;;
51724;SDS011;37801;53.224;6.552;2022-12-29T05:05:43;9.80;;;1.60;;
51724;SDS011;37801;53.224;6.552;2022-12-29T05:08:09;7.07;;;1.60;;
51724;SDS011;37801;53.224;6.552;2022-12-29T05:10:35;8.15;;;1.70;;
51724;SDS011;37801;53.224;6.552;2022-12-29T05:13:01;8.88;;;1.90;;
51724;SDS011;37801;53.224;6.552;2022-12-29T05:15:26;5.90;;;1.60;;
51724;SDS011;37801;53.224;6.552;2022-12-29T05:17:52;9.85;;;1.58;;
51724;SDS011;37801;53.224;6.552;2022-12-29T05:20:18;9.93;;;1.60;;
51724;SDS011;37801;53.224;6.552;2022-12-29T05:22:44;8.70;;;1.90;;
51724;SDS011;37801;53.224;6.552;2022-12-29T05:25:09;10.50;;;1.98;;
51724;SDS011;37801;53.224;6.552;2022-12-29T05:27:35;5.60;;;1.65;;
51724;SDS011;37801;53.224;6.552;2022-12-29T05:30:01;8.55;;;1.65;;
51724;SDS011;37801;53.224;6.552;2022-12-29T05:32:27;13.68;;;2.00;;
51724;SDS011;37801;53.224;6.552;2022-12-29T05:34:53;11.82;;;2.35;;
51724;SDS011;37801;53.224;6.552;2022-12-29T05:37:19;6.90;;;2.08;;
51724;SDS011;37801;53.224;6.552;2022-12-29T05:39:44;9.90;;;2.28;;
51724;SDS011;37801;53.224;6.552;2022-12-29T05:42:10;8.73;;;2.40;;
51724;SDS011;37801;53.224;6.552;2022-12-29T05:44:36;12.05;;;2.30;;
51724;SDS011;37801;53.224;6.552;2022-12-29T05:47:01;10.35;;;2.00;;
51724;SDS011;37801;53.224;6.552;2022-12-29T05:49:27;13.18;;;2.08;;
51724;SDS011;37801;53.224;6.552;2022-12-29T05:51:53;8.50;;;2.13;;
51724;SDS011;37801;53.224;6.552;2022-12-29T05:54:18;11.63;;;2.50;;
51724;SDS011;37801;53.224;6.552;2022-12-29T05:56:44;10.00;;;2.20;;
51724;SDS011;37801;53.224;6.552;2022-12-29T05:59:10;11.77;;;2.63;;
51724;SDS011;37801;53.224;6.552;2022-12-29T06:01:35;14.82;;;2.90;;
51724;SDS011;37801;53.224;6.552;2022-12-29T06:04:01;10.05;;;2.30;;
51724;SDS011;37801;53.224;6.552;2022-12-29T06:06:27;14.10;;;2.72;;
51724;SDS011;37801;53.224;6.552;2022-12-29T06:08:53;8.82;;;2.15;;
51724;SDS011;37801;53.224;6.552;2022-12-29T06:11:18;11.38;;;2.45;;
51724;SDS011;37801;53.224;6.552;2022-12-29T06:13:44;12.13;;;2.42;;
51724;SDS011;37801;53.224;6.552;2022-12-29T06:16:10;13.45;;;2.60;;
51724;SDS011;37801;53.224;6.552;2022-12-29T06:18:36;12.00;;;2.55;;
51724;SDS011;37801;53.224;6.552;2022-12-29T06:21:02;9.95;;;2.22;;
51724;SDS011;37801;53.224;6.552;2022-12-29T06:23:29;14.43;;;2.33;;
51724;SDS011;37801;53.224;6.552;2022-12-29T06:25:55;7.78;;;1.95;;
51724;SDS011;37801;53.224;6.552;2022-12-29T06:28:22;11.05;;;2.33;;
51724;SDS011;37801;53.224;6.552;2022-12-29T06:30:48;17.55;;;3.15;;
51724;SDS011;37801;53.224;6.552;2022-12-29T06:33:14;12.90;;;2.33;;
51724;SDS011;37801;53.224;6.552;2022-12-29T06:35:44;12.43;;;2.05;;
51724;SDS011;37801;53.224;6.552;2022-12-29T06:38:10;14.70;;;2.47;;
51724;SDS011;37801;53.224;6.552;2022-12-29T06:40:36;13.38;;;2.47;;
51724;SDS011;37801;53.224;6.552;2022-12-29T06:43:02;17.67;;;2.30;;
51724;SDS011;37801;53.224;6.552;2022-12-29T06:45:28;16.52;;;2.63;;
51724;SDS011;37801;53.224;6.552;2022-12-29T06:47:53;15.88;;;2.90;;
51724;SDS011;37801;53.224;6.552;2022-12-29T06:50:19;17.08;;;3.13;;
51724;SDS011;37801;53.224;6.552;2022-12-29T06:52:45;14.35;;;2.90;;
51724;SDS011;37801;53.224;6.552;2022-12-29T06:55:11;20.42;;;2.97;;
51724;SDS011;37801;53.224;6.552;2022-12-29T06:57:36;18.30;;;2.92;;
51724;SDS011;37801;53.224;6.552;2022-12-29T07:00:03;15.65;;;3.08;;
51724;SDS011;37801;53.224;6.552;2022-12-29T07:02:30;20.25;;;2.70;;
51724;SDS011;37801;53.224;6.552;2022-12-29T07:04:55;15.85;;;2.65;;
51724;SDS011;37801;53.224;6.552;2022-12-29T07:07:21;14.48;;;2.60;;
51724;SDS011;37801;53.224;6.552;2022-12-29T07:09:47;22.40;;;3.35;;
51724;SDS011;37801;53.224;6.552;2022-12-29T07:12:13;14.20;;;2.63;;
51724;SDS011;37801;53.224;6.552;2022-12-29T07:14:38;22.15;;;3.35;;
51724;SDS011;37801;53.224;6.552;2022-12-29T07:17:04;13.55;;;2.58;;
51724;SDS011;37801;53.224;6.552;2022-12-29T07:19:34;20.25;;;2.40;;
51724;SDS011;37801;53.224;6.552;2022-12-29T07:21:59;20.90;;;2.53;;
51724;SDS011;37801;53.224;6.552;2022-12-29T07:24:26;17.60;;;2.78;;
51724;SDS011;37801;53.224;6.552;2022-12-29T07:26:52;15.30;;;2.70;;
51724;SDS011;37801;53.224;6.552;2022-12-29T07:29:18;21.13;;;3.13;;
51724;SDS011;37801;53.224;6.552;2022-12-29T07:31:43;19.20;;;3.17;;
51724;SDS011;37801;53.224;6.552;2022-12-29T07:34:09;12.73;;;2.67;;
51724;SDS011;37801;53.224;6.552;2022-12-29T07:36:35;13.38;;;2.55;;
51724;SDS011;37801;53.224;6.552;2022-12-29T07:39:01;15.98;;;3.30;;
51724;SDS011;37801;53.224;6.552;2022-12-29T07:41:27;14.25;;;2.78;;
51724;SDS011;37801;53.224;6.552;2022-12-29T07:43:53;15.20;;;2.70;;
51724;SDS011;37801;53.224;6.552;2022-12-29T07:46:18;20.15;;;2.97;;
51724;SDS011;37801;53.224;6.552;2022-12-29T07:48:44;16.48;;;2.75;;
51724;SDS011;37801;53.224;6.552;2022-12-29T07:51:10;17.45;;;3.28;;
51724;SDS011;37801;53.224;6.552;2022-12-29T07:53:36;14.75;;;3.60;;
51724;SDS011;37801;53.224;6.552;2022-12-29T07:56:02;19.40;;;3.55;;
51724;SDS011;37801;53.224;6.552;2022-12-29T07:58:28;15.82;;;2.78;;
51724;SDS011;37801;53.224;6.552;2022-12-29T08:00:54;16.75;;;3.47;;
51724;SDS011;37801;53.224;6.552;2022-12-29T08:03:20;17.63;;;3.28;;
51724;SDS011;37801;53.224;6.552;2022-12-29T08:05:46;17.50;;;3.13;;
51724;SDS011;37801;53.224;6.552;2022-12-29T08:08:12;13.95;;;3.17;;
51724;SDS011;37801;53.224;6.552;2022-12-29T08:10:37;15.18;;;3.00;;
51724;SDS011;37801;53.224;6.552;2022-12-29T08:13:03;9.98;;;2.67;;
51724;SDS011;37801;53.224;6.552;2022-12-29T08:15:29;15.13;;;3.22;;
51724;SDS011;37801;53.224;6.552;2022-12-29T08:17:54;21.38;;;3.35;;
51724;SDS011;37801;53.224;6.552;2022-12-29T08:20:20;16.33;;;3.38;;
51724;SDS011;37801;53.224;6.552;2022-12-29T08:22:46;19.40;;;3.20;;
51724;SDS011;37801;53.224;6.552;2022-12-29T08:25:11;15.00;;;2.80;;
51724;SDS011;37801;53.224;6.552;2022-12-29T08:27:37;20.10;;;3.53;;
51724;SDS011;37801;53.224;6.552;2022-12-29T08:30:03;20.70;;;3.33;;
51724;SDS011;37801;53.224;6.552;2022-12-29T08:32:29;11.82;;;2.70;;
51724;SDS011;37801;53.224;6.552;2022-12-29T08:34:55;17.15;;;2.92;;
51724;SDS011;37801;53.224;6.552;2022-12-29T08:37:21;20.77;;;3.17;;
51724;SDS011;37801;53.224;6.552;2022-12-29T08:39:47;16.73;;;3.03;;
51724;SDS011;37801;53.224;6.552;2022-12-29T08:42:13;19.27;;;3.40;;
51724;SDS011;37801;53.224;6.552;2022-12-29T08:44:39;13.18;;;2.80;;
51724;SDS011;37801;53.224;6.552;2022-12-29T08:47:05;24.35;;;3.35;;
51724;SDS011;37801;53.224;6.552;2022-12-29T08:49:31;14.73;;;2.80;;
51724;SDS011;37801;53.224;6.552;2022-12-29T08:51:58;19.83;;;3.67;;
51724;SDS011;37801;53.224;6.552;2022-12-29T08:54:24;26.08;;;4.07;;
51724;SDS011;37801;53.224;6.552;2022-12-29T08:56:50;17.27;;;2.88;;
51724;SDS011;37801;53.224;6.552;2022-12-29T08:59:16;21.85;;;3.45;;
51724;SDS011;37801;53.224;6.552;2022-12-29T09:01:41;23.67;;;3.88;;
51724;SDS011;37801;53.224;6.552;2022-12-29T09:04:07;25.55;;;4.25;;
51724;SDS011;37801;53.224;6.552;2022-12-29T09:06:33;23.70;;;3.28;;
51724;SDS011;37801;53.224;6.552;2022-12-29T09:09:00;26.58;;;4.07;;
51724;SDS011;37801;53.224;6.552;2022-12-29T09:11:26;16.23;;;3.30;;
51724;SDS011;37801;53.224;6.552;2022-12-29T09:13:52;23.20;;;3.60;;
51724;SDS011;37801;53.224;6.552;2022-12-29T09:16:18;20.70;;;3.38;;
51724;SDS011;37801;53.224;6.552;2022-12-29T09:18:46;26.40;;;4.30;;
51724;SDS011;37801;53.224;6.552;2022-12-29T09:21:12;24.80;;;3.75;;
51724;SDS011;37801;53.224;6.552;2022-12-29T09:23:38;17.73;;;3.67;;
51724;SDS011;37801;53.224;6.552;2022-12-29T09:26:04;23.75;;;3.80;;
51724;SDS011;37801;53.224;6.552;2022-12-29T09:28:30;22.05;;;3.25;;
51724;SDS011;37801;53.224;6.552;2022-12-29T09:30:56;24.63;;;4.53;;
51724;SDS011;37801;53.224;6.552;2022-12-29T09:33:23;19.38;;;3.28;;
51724;SDS011;37801;53.224;6.552;2022-12-29T09:35:53;22.27;;;3.38;;
51724;SDS011;37801;53.224;6.552;2022-12-29T09:38:20;18.92;;;3.38;;
51724;SDS011;37801;53.224;6.552;2022-12-29T09:40:51;18.63;;;3.00;;
51724;SDS011;37801;53.224;6.552;2022-12-29T09:43:36;19.35;;;3.55;;
51724;SDS011;37801;53.224;6.552;2022-12-29T09:46:11;16.60;;;3.47;;
51724;SDS011;37801;53.224;6.552;2022-12-29T09:48:47;26.30;;;3.92;;
51724;SDS011;37801;53.224;6.552;2022-12-29T09:51:22;24.85;;;4.28;;
51724;SDS011;37801;53.224;6.552;2022-12-29T09:53:52;17.20;;;2.90;;
51724;SDS011;37801;53.224;6.552;2022-12-29T09:56:25;24.83;;;3.95;;
51724;SDS011;37801;53.224;6.552;2022-12-29T09:59:10;18.27;;;3.47;;
51724;SDS011;37801;53.224;6.552;2022-12-29T10:01:53;13.68;;;2.83;;
51724;SDS011;37801;53.224;6.552;2022-12-29T10:04:23;15.27;;;3.15;;
51724;SDS011;37801;53.224;6.552;2022-12-29T10:07:08;13.55;;;2.63;;
51724;SDS011;37801;53.224;6.552;2022-12-29T10:15:18;16.13;;;2.55;;
51724;SDS011;37801;53.224;6.552;2022-12-29T10:23:27;16.10;;;3.13;;
51724;SDS011;37801;53.224;6.552;2022-12-29T10:25:58;17.00;;;3.08;;
51724;SDS011;37801;53.224;6.552;2022-12-29T10:28:30;12.65;;;2.75;;
51724;SDS011;37801;53.224;6.552;2022-12-29T10:31:18;18.15;;;2.67;;
51724;SDS011;37801;53.224;6.552;2022-12-29T10:33:48;17.70;;;2.60;;
51724;SDS011;37801;53.224;6.552;2022-12-29T10:36:21;14.18;;;2.33;;
51724;SDS011;37801;53.224;6.552;2022-12-29T10:38:58;10.90;;;2.03;;
51724;SDS011;37801;53.224;6.552;2022-12-29T10:41:30;12.45;;;2.88;;
51724;SDS011;37801;53.224;6.552;2022-12-29T10:44:13;12.15;;;2.00;;
51724;SDS011;37801;53.224;6.552;2022-12-29T10:46:41;12.95;;;2.67;;
51724;SDS011;37801;53.224;6.552;2022-12-29T10:49:12;14.63;;;2.60;;
51724;SDS011;37801;53.224;6.552;2022-12-29T10:51:43;12.40;;;2.80;;
51724;SDS011;37801;53.224;6.552;2022-12-29T10:54:14;15.80;;;3.42;;
51724;SDS011;37801;53.224;6.552;2022-12-29T10:57:05;17.45;;;3.40;;
51724;SDS011;37801;53.224;6.552;2022-12-29T10:59:36;11.18;;;2.78;;
51724;SDS011;37801;53.224;6.552;2022-12-29T11:02:12;15.20;;;3.38;;
51724;SDS011;37801;53.224;6.552;2022-12-29T11:05:02;20.10;;;3.97;;
51724;SDS011;37801;53.224;6.552;2022-12-29T11:07:29;19.58;;;3.30;;
51724;SDS011;37801;53.224;6.552;2022-12-29T11:09:55;20.73;;;3.30;;
51724;SDS011;37801;53.224;6.552;2022-12-29T11:15:59;17.85;;;3.13;;
51724;SDS011;37801;53.224;6.552;2022-12-29T11:18:26;25.20;;;3.58;;
51724;SDS011;37801;53.224;6.552;2022-12-29T11:20:58;18.42;;;3.92;;
51724;SDS011;37801;53.224;6.552;2022-12-29T11:28:47;18.20;;;3.67;;
51724;SDS011;37801;53.224;6.552;2022-12-29T11:31:29;22.90;;;3.53;;
51724;SDS011;37801;53.224;6.552;2022-12-29T11:33:55;24.38;;;3.88;;
51724;SDS011;37801;53.224;6.552;2022-12-29T11:36:21;21.92;;;3.65;;
51724;SDS011;37801;53.224;6.552;2022-12-29T11:38:50;18.08;;;3.50;;
51724;SDS011;37801;53.224;6.552;2022-12-29T11:41:27;22.55;;;4.03;;
51724;SDS011;37801;53.224;6.552;2022-12-29T11:43:55;21.63;;;3.53;;
51724;SDS011;37801;53.224;6.552;2022-12-29T11:46:28;20.13;;;3.85;;
51724;SDS011;37801;53.224;6.552;2022-12-29T11:48:57;21.57;;;4.53;;
51724;SDS011;37801;53.224;6.552;2022-12-29T11:51:58;22.52;;;3.70;;
51724;SDS011;37801;53.224;6.552;2022-12-29T11:54:29;23.60;;;3.58;;
51724;SDS011;37801;53.224;6.552;2022-12-29T11:56:58;23.77;;;3.55;;
51724;SDS011;37801;53.224;6.552;2022-12-29T11:59:48;25.42;;;3.50;;
51724;SDS011;37801;53.224;6.552;2022-12-29T12:04:51;23.90;;;3.92;;
51724;SDS011;37801;53.224;6.552;2022-12-29T12:07:44;22.98;;;3.75;;
51724;SDS011;37801;53.224;6.552;2022-12-29T12:10:20;14.93;;;3.22;;
51724;SDS011;37801;53.224;6.552;2022-12-29T12:15:34;22.40;;;3.42;;
51724;SDS011;37801;53.224;6.552;2022-12-29T12:20:55;19.00;;;3.42;;
51724;SDS011;37801;53.224;6.552;2022-12-29T12:26:53;20.42;;;3.95;;
51724;SDS011;37801;53.224;6.552;2022-12-29T12:29:14;20.35;;;3.80;;
51724;SDS011;37801;53.224;6.552;2022-12-29T12:31:50;23.83;;;4.17;;
51724;SDS011;37801;53.224;6.552;2022-12-29T12:34:22;22.77;;;3.40;;
51724;SDS011;37801;53.224;6.552;2022-12-29T12:39:25;22.25;;;3.30;;
51724;SDS011;37801;53.224;6.552;2022-12-29T12:47:18;17.80;;;2.70;;
51724;SDS011;37801;53.224;6.552;2022-12-29T12:57:51;20.40;;;3.17;;
51724;SDS011;37801;53.224;6.552;2022-12-29T13:03:41;17.15;;;3.92;;
51724;SDS011;37801;53.224;6.552;2022-12-29T13:17:08;12.93;;;2.15;;
51724;SDS011;37801;53.224;6.552;2022-12-29T13:19:41;9.52;;;1.85;;
51724;SDS011;37801;53.224;6.552;2022-12-29T13:28:03;8.68;;;1.63;;
51724;SDS011;37801;53.224;6.552;2022-12-29T13:33:30;10.82;;;2.40;;
51724;SDS011;37801;53.224;6.552;2022-12-29T13:36:09;12.95;;;2.47;;
51724;SDS011;37801;53.224;6.552;2022-12-29T13:38:44;15.77;;;2.30;;
51724;SDS011;37801;53.224;6.552;2022-12-29T13:41:19;10.15;;;2.15;;
51724;SDS011;37801;53.224;6.552;2022-12-29T13:43:54;10.10;;;1.80;;
51724;SDS011;37801;53.224;6.552;2022-12-29T13:46:24;10.57;;;2.00;;
51724;SDS011;37801;53.224;6.552;2022-12-29T13:48:58;12.85;;;2.25;;
51724;SDS011;37801;53.224;6.552;2022-12-29T13:54:11;10.10;;;2.13;;
51724;SDS011;37801;53.224;6.552;2022-12-29T13:56:39;11.10;;;2.00;;
51724;SDS011;37801;53.224;6.552;2022-12-29T13:59:33;11.40;;;2.38;;
51724;SDS011;37801;53.224;6.552;2022-12-29T14:02:17;11.02;;;1.98;;
51724;SDS011;37801;53.224;6.552;2022-12-29T14:05:05;12.77;;;2.30;;
51724;SDS011;37801;53.224;6.552;2022-12-29T14:07:56;12.63;;;2.58;;
51724;SDS011;37801;53.224;6.552;2022-12-29T14:13:33;10.95;;;2.28;;
51724;SDS011;37801;53.224;6.552;2022-12-29T14:15:55;13.27;;;2.08;;
51724;SDS011;37801;53.224;6.552;2022-12-29T14:18:24;9.98;;;1.90;;
51724;SDS011;37801;53.224;6.552;2022-12-29T14:26:44;9.57;;;1.98;;
51724;SDS011;37801;53.224;6.552;2022-12-29T14:29:15;11.93;;;2.20;;
51724;SDS011;37801;53.224;6.552;2022-12-29T14:31:46;12.02;;;2.15;;
51724;SDS011;37801;53.224;6.552;2022-12-29T14:36:39;14.02;;;2.60;;
51724;SDS011;37801;53.224;6.552;2022-12-29T14:42:05;12.43;;;2.50;;
51724;SDS011;37801;53.224;6.552;2022-12-29T14:44:32;11.95;;;2.42;;
51724;SDS011;37801;53.224;6.552;2022-12-29T14:46:59;13.95;;;2.65;;
51724;SDS011;37801;53.224;6.552;2022-12-29T14:49:32;16.10;;;2.45;;
51724;SDS011;37801;53.224;6.552;2022-12-29T14:52:07;10.43;;;2.35;;
51724;SDS011;37801;53.224;6.552;2022-12-29T14:54:53;8.13;;;1.73;;
51724;SDS011;37801;53.224;6.552;2022-12-29T14:57:38;10.68;;;2.15;;
51724;SDS011;37801;53.224;6.552;2022-12-29T15:00:07;11.35;;;2.05;;
51724;SDS011;37801;53.224;6.552;2022-12-29T15:02:41;22.52;;;2.70;;
51724;SDS011;37801;53.224;6.552;2022-12-29T15:05:34;12.63;;;2.33;;
51724;SDS011;37801;53.224;6.552;2022-12-29T15:08:07;11.53;;;2.33;;
51724;SDS011;37801;53.224;6.552;2022-12-29T15:10:37;17.73;;;3.00;;
51724;SDS011;37801;53.224;6.552;2022-12-29T15:13:13;14.15;;;2.55;;
51724;SDS011;37801;53.224;6.552;2022-12-29T15:15:42;13.23;;;2.80;;
51724;SDS011;37801;53.224;6.552;2022-12-29T15:18:13;14.80;;;2.67;;
51724;SDS011;37801;53.224;6.552;2022-12-29T15:21:05;15.60;;;2.45;;
51724;SDS011;37801;53.224;6.552;2022-12-29T15:23:32;19.23;;;2.72;;
51724;SDS011;37801;53.224;6.552;2022-12-29T15:26:02;11.95;;;2.13;;
51724;SDS011;37801;53.224;6.552;2022-12-29T15:28:36;10.80;;;2.25;;
51724;SDS011;37801;53.224;6.552;2022-12-29T15:31:05;12.45;;;2.25;;
51724;SDS011;37801;53.224;6.552;2022-12-29T15:33:37;15.57;;;2.67;;
51724;SDS011;37801;53.224;6.552;2022-12-29T15:36:10;8.77;;;2.35;;
51724;SDS011;37801;53.224;6.552;2022-12-29T15:38:38;14.75;;;2.83;;
51724;SDS011;37801;53.224;6.552;2022-12-29T15:41:06;14.85;;;2.50;;
51724;SDS011;37801;53.224;6.552;2022-12-29T15:46:17;21.55;;;3.08;;
51724;SDS011;37801;53.224;6.552;2022-12-29T15:48:43;13.57;;;2.17;;
51724;SDS011;37801;53.224;6.552;2022-12-29T15:51:17;14.23;;;2.55;;
51724;SDS011;37801;53.224;6.552;2022-12-29T15:53:48;18.17;;;2.63;;
51724;SDS011;37801;53.224;6.552;2022-12-29T15:56:16;19.52;;;3.20;;
51724;SDS011;37801;53.224;6.552;2022-12-29T15:58:44;15.82;;;3.00;;
51724;SDS011;37801;53.224;6.552;2022-12-29T16:01:32;14.80;;;3.00;;
51724;SDS011;37801;53.224;6.552;2022-12-29T16:04:01;10.48;;;2.17;;
51724;SDS011;37801;53.224;6.552;2022-12-29T16:06:31;14.50;;;2.95;;
51724;SDS011;37801;53.224;6.552;2022-12-29T16:09:15;17.58;;;3.92;;
51724;SDS011;37801;53.224;6.552;2022-12-29T16:11:44;11.70;;;3.67;;
51724;SDS011;37801;53.224;6.552;2022-12-29T16:14:30;16.90;;;3.55;;
51724;SDS011;37801;53.224;6.552;2022-12-29T16:17:17;12.80;;;3.33;;
51724;SDS011;37801;53.224;6.552;2022-12-29T16:19:50;13.80;;;2.85;;
51724;SDS011;37801;53.224;6.552;2022-12-29T16:27:43;10.20;;;2.20;;
51724;SDS011;37801;53.224;6.552;2022-12-29T16:30:25;8.65;;;1.77;;
51724;SDS011;37801;53.224;6.552;2022-12-29T16:33:03;14.65;;;2.13;;
51724;SDS011;37801;53.224;6.552;2022-12-29T16:35:44;9.98;;;1.85;;
51724;SDS011;37801;53.224;6.552;2022-12-29T16:43:19;10.13;;;2.00;;
51724;SDS011;37801;53.224;6.552;2022-12-29T16:50:41;6.47;;;1.50;;
51724;SDS011;37801;53.224;6.552;2022-12-29T16:55:55;6.35;;;1.45;;
51724;SDS011;37801;53.224;6.552;2022-12-29T16:58:24;6.53;;;1.55;;
51724;SDS011;37801;53.224;6.552;2022-12-29T17:00:57;7.85;;;1.83;;
51724;SDS011;37801;53.224;6.552;2022-12-29T17:03:27;7.22;;;1.77;;
51724;SDS011;37801;53.224;6.552;2022-12-29T17:05:59;7.72;;;2.28;;
51724;SDS011;37801;53.224;6.552;2022-12-29T17:08:24;8.45;;;2.20;;
51724;SDS011;37801;53.224;6.552;2022-12-29T17:10:51;4.63;;;1.00;;
51724;SDS011;37801;53.224;6.552;2022-12-29T17:13:37;7.32;;;1.60;;
51724;SDS011;37801;53.224;6.552;2022-12-29T17:16:04;8.27;;;1.67;;
51724;SDS011;37801;53.224;6.552;2022-12-29T17:18:32;7.90;;;1.52;;
51724;SDS011;37801;53.224;6.552;2022-12-29T17:20:59;12.48;;;2.28;;
51724;SDS011;37801;53.224;6.552;2022-12-29T17:23:25;8.75;;;2.00;;
51724;SDS011;37801;53.224;6.552;2022-12-29T17:25:51;10.07;;;2.03;;
51724;SDS011;37801;53.224;6.552;2022-12-29T17:28:25;7.50;;;2.30;;
51724;SDS011;37801;53.224;6.552;2022-12-29T17:31:03;11.68;;;2.80;;